Main page
METAR-TAF:

METAR-TAF

Airports :

Leipzig–Altenburg Airport

Altenburg, Germany

latitude: 50-58N, longitude: 012-30E, elevation: 195 m

Current weather observation

The report was made 43 minutes ago, at 21:20 UTC
Wind 2 kt from variable directions
Temperature 11°C
Humidity 94%
Pressure 1022 hPa
Visibility: 4200 m

METAR: EDAC 212120Z AUTO VRB02KT 4200 // FEW100/// 11/10 Q1022

Time: 00:03 (22:03 UTC)

Forecast

The report was made 5 hours and 3 minutes ago, at 17:00 UTC
Forecast valid from 21 at 18 UTC to 22 at 03 UTC
Wind 3 kt from variable directions
Visibility 10 km or more
no clouds below 1500 m and no cumulonimbus
Probability 30% :
Temporary
from 21 at 23 UTC to 22 at 03 UTC
Visibility: 3500 m
patches of fog

TAF: EDAC 211700Z 2118/2203 VRB03KT CAVOK PROB30 TEMPO 2123/2203 3500 BCFG

Weather observations and forecasts of more than 4000 airports (METAR and TAF reports).

The available stations are represented by yellow and red dots on the map.

Hover mouse over dot to see the name of the station.

Then click to see weather observations and forecasts.

To change the map : click on the green buttons with a black cross to zoom in, on the green button with a dash to zoom out, or on the green arrows for adjacent maps.


METAR-TAF: